createdAt,value
2023-04-26T00:02:27.638Z,11.37
2023-04-26T00:05:01.629Z,11.60
2023-04-26T00:07:32.742Z,12.27
2023-04-26T00:10:03.430Z,12.00
2023-04-26T00:12:33.756Z,11.53
2023-04-26T00:15:05.305Z,11.97
2023-04-26T00:17:37.081Z,11.40
2023-04-26T00:20:12.493Z,11.05
2023-04-26T00:22:42.621Z,11.70
2023-04-26T00:25:14.791Z,11.10
2023-04-26T00:27:45.317Z,11.85
2023-04-26T00:30:17.299Z,10.97
2023-04-26T00:32:48.331Z,11.60
2023-04-26T00:35:19.769Z,11.48
2023-04-26T00:37:50.499Z,11.57
2023-04-26T00:40:22.068Z,10.93
2023-04-26T00:42:58.924Z,10.65
2023-04-26T00:45:30.530Z,10.83
2023-04-26T00:48:02.959Z,10.33
2023-04-26T00:50:33.594Z,11.23
2023-04-26T00:53:07.181Z,10.68
2023-04-26T00:55:38.130Z,11.13
2023-04-26T00:58:08.470Z,11.27
2023-04-26T01:00:39.173Z,10.83
2023-04-26T01:03:10.818Z,11.47
2023-04-26T01:05:42.073Z,11.53
2023-04-26T01:08:16.859Z,11.03
2023-04-26T01:10:49.089Z,11.30
2023-04-26T01:13:19.590Z,11.50
2023-04-26T01:15:51.260Z,11.10
2023-04-26T01:18:21.674Z,10.73
2023-04-26T01:20:53.636Z,11.08
2023-04-26T01:23:23.957Z,11.33
2023-04-26T01:25:56.131Z,10.83
2023-04-26T01:28:26.446Z,11.03
2023-04-26T01:30:56.312Z,11.23
2023-04-26T01:33:27.085Z,11.63
2023-04-26T01:35:57.621Z,11.37
2023-04-26T01:38:27.938Z,11.10
2023-04-26T01:40:58.260Z,10.93
2023-04-26T01:43:28.373Z,10.77
2023-04-26T01:48:32.912Z,10.43
2023-04-26T01:51:04.651Z,10.97
2023-04-26T01:53:36.632Z,10.93
2023-04-26T01:56:09.406Z,10.73
2023-04-26T01:58:41.167Z,10.00
2023-04-26T02:01:11.718Z,10.50
2023-04-26T02:03:41.866Z,11.33
2023-04-26T02:06:12.567Z,10.00
2023-04-26T02:08:42.462Z,11.33
2023-04-26T02:11:12.072Z,10.53
2023-04-26T02:13:42.488Z,10.60
2023-04-26T02:16:12.694Z,10.13
2023-04-26T02:18:43.857Z,10.23
2023-04-26T02:21:16.574Z,10.60
2023-04-26T02:23:47.268Z,9.83
2023-04-26T02:26:17.605Z,10.97
2023-04-26T02:28:48.315Z,11.10
2023-04-26T02:31:19.624Z,10.63
2023-04-26T02:33:51.420Z,11.13
2023-04-26T02:36:22.154Z,10.50
2023-04-26T02:38:53.464Z,10.53
2023-04-26T02:41:24.641Z,12.13
2023-04-26T02:43:55.169Z,11.70
2023-04-26T02:46:25.410Z,11.30
2023-04-26T02:48:55.832Z,11.60
2023-04-26T02:51:27.182Z,10.77
2023-04-26T02:53:57.285Z,11.00
2023-04-26T02:56:29.039Z,10.83
2023-04-26T02:58:59.764Z,10.63
2023-04-26T03:01:30.564Z,10.63
2023-04-26T03:04:01.087Z,11.63
2023-04-26T03:06:32.988Z,12.17
2023-04-26T03:09:05.175Z,12.28
2023-04-26T03:14:05.614Z,11.70
2023-04-26T03:16:43.216Z,12.13
2023-04-26T03:19:14.232Z,11.43
2023-04-26T03:21:45.366Z,12.03
2023-04-26T03:24:15.902Z,11.60
2023-04-26T03:26:46.017Z,12.77
2023-04-26T03:29:17.977Z,11.47
2023-04-26T03:31:48.334Z,11.63
2023-04-26T03:34:18.830Z,13.00
2023-04-26T03:36:49.561Z,12.17
2023-04-26T03:39:20.497Z,11.83
2023-04-26T03:41:51.024Z,12.23
2023-04-26T03:44:21.152Z,12.47
2023-04-26T03:46:51.674Z,12.83
2023-04-26T03:49:22.413Z,12.17
2023-04-26T03:51:53.347Z,12.80
2023-04-26T03:54:24.071Z,12.03
2023-04-26T03:56:55.417Z,12.60
2023-04-26T03:59:26.149Z,13.20
2023-04-26T04:01:57.134Z,13.10
2023-04-26T04:04:28.096Z,13.30
2023-04-26T04:06:59.586Z,13.53
2023-04-26T04:09:29.899Z,13.20
2023-04-26T04:12:00.832Z,13.53
2023-04-26T04:14:31.564Z,12.73
2023-04-26T04:17:02.296Z,12.83
2023-04-26T04:19:34.465Z,13.07
2023-04-26T04:22:05.197Z,13.17
2023-04-26T04:24:35.931Z,13.03
2023-04-26T04:27:07.279Z,14.47
2023-04-26T04:29:38.007Z,13.23
2023-04-26T04:32:09.760Z,14.00
2023-04-26T04:34:41.318Z,13.40
2023-04-26T04:37:12.471Z,13.80
2023-04-26T04:39:43.398Z,14.33
2023-04-26T04:42:13.933Z,13.80
2023-04-26T04:44:45.477Z,13.87
2023-04-26T04:47:17.199Z,14.80
2023-04-26T04:49:47.756Z,14.03
2023-04-26T04:52:19.511Z,15.97
2023-04-26T04:54:50.050Z,15.20
2023-04-26T04:57:20.981Z,14.50
2023-04-26T04:59:51.708Z,13.47
2023-04-26T05:02:22.392Z,14.10
2023-04-26T05:04:53.060Z,13.57
2023-04-26T05:07:24.606Z,13.40
2023-04-26T05:09:56.895Z,13.67
2023-04-26T05:12:27.646Z,13.97
2023-04-26T05:14:57.558Z,13.20
2023-04-26T05:17:30.458Z,13.80
2023-04-26T05:20:03.856Z,14.13
2023-04-26T05:22:36.207Z,13.80
2023-04-26T05:25:13.123Z,13.43
2023-04-26T05:27:45.289Z,13.97
2023-04-26T05:30:24.067Z,13.17
2023-04-26T05:33:23.049Z,12.77
2023-04-26T05:35:59.930Z,12.27
2023-04-26T05:38:30.654Z,12.27
2023-04-26T05:41:01.185Z,12.40
2023-04-26T05:43:32.738Z,12.30
2023-04-26T05:46:02.927Z,11.53
2023-04-26T05:48:33.586Z,11.70
2023-04-26T05:51:04.755Z,11.27
2023-04-26T05:53:34.847Z,11.43
2023-04-26T05:56:07.225Z,11.70
2023-04-26T05:58:38.970Z,11.10
2023-04-26T06:01:09.699Z,9.98
2023-04-26T06:03:41.626Z,10.27
2023-04-26T06:06:13.009Z,10.33
2023-04-26T06:08:45.384Z,10.00
2023-04-26T06:11:16.746Z,10.90
2023-04-26T06:13:46.853Z,10.27
2023-04-26T06:16:17.286Z,10.00
2023-04-26T06:18:47.896Z,11.40
2023-04-26T06:21:18.636Z,10.27
2023-04-26T06:23:50.598Z,9.90
2023-04-26T06:26:22.761Z,10.17
2023-04-26T06:28:54.311Z,10.20
2023-04-26T06:31:24.302Z,9.73
2023-04-26T06:33:55.697Z,9.70
2023-04-26T06:36:27.655Z,9.57
2023-04-26T06:38:58.469Z,9.60
2023-04-26T06:41:28.795Z,8.57
2023-04-26T06:43:59.732Z,9.20
2023-04-26T06:46:34.191Z,8.27
2023-04-26T06:49:04.677Z,8.20
2023-04-26T06:51:35.217Z,8.70
2023-04-26T06:54:05.945Z,7.43
2023-04-26T06:56:36.675Z,7.37
2023-04-26T06:59:08.220Z,7.07
2023-04-26T07:01:39.219Z,6.58
2023-04-26T07:04:10.871Z,7.50
2023-04-26T07:09:11.976Z,7.00
2023-04-26T07:11:42.457Z,6.93
2023-04-26T07:14:13.067Z,6.97
2023-04-26T07:16:42.993Z,7.13
2023-04-26T07:19:13.265Z,7.43
2023-04-26T07:21:42.916Z,7.83
2023-04-26T07:24:13.836Z,6.40
2023-04-26T07:26:43.833Z,6.87
2023-04-26T07:29:13.747Z,7.47
2023-04-26T07:31:44.059Z,7.80
2023-04-26T07:34:14.794Z,7.43
2023-04-26T07:36:45.935Z,7.27
2023-04-26T07:39:16.677Z,5.80
2023-04-26T07:41:47.617Z,6.10
2023-04-26T07:44:17.733Z,6.27
2023-04-26T07:46:48.050Z,5.97
2023-04-26T07:49:18.168Z,6.77
2023-04-26T07:51:50.736Z,6.23
2023-04-26T07:54:21.278Z,5.80
2023-04-26T07:56:51.596Z,5.00
2023-04-26T07:59:22.117Z,5.33
2023-04-26T08:01:52.109Z,4.85
2023-04-26T08:04:33.356Z,5.87
2023-04-26T08:07:03.739Z,5.57
2023-04-26T08:09:34.675Z,6.30
2023-04-26T08:12:08.234Z,5.30
2023-04-26T08:14:38.812Z,4.80
2023-04-26T08:17:09.597Z,4.73
2023-04-26T08:19:40.884Z,5.33
2023-04-26T08:22:11.212Z,5.03
2023-04-26T08:24:41.729Z,4.83
2023-04-26T08:27:12.463Z,4.60
2023-04-26T08:29:43.210Z,4.53
2023-04-26T08:32:13.721Z,4.50
2023-04-26T08:34:44.456Z,4.37
2023-04-26T08:37:15.612Z,4.13
2023-04-26T08:39:47.350Z,3.73
2023-04-26T08:42:18.672Z,4.07
2023-04-26T08:44:49.033Z,3.70
2023-04-26T08:47:31.116Z,4.17
2023-04-26T08:52:35.551Z,3.53
2023-04-26T08:55:10.193Z,3.67
2023-04-26T08:57:41.127Z,3.27
2023-04-26T09:00:16.452Z,3.37
2023-04-26T09:02:50.670Z,2.90
2023-04-26T09:05:23.669Z,3.10
2023-04-26T09:08:00.285Z,2.77
2023-04-26T09:10:31.794Z,3.67
2023-04-26T09:13:01.900Z,3.20
2023-04-26T09:15:32.052Z,3.00
2023-04-26T09:18:20.796Z,3.17
2023-04-26T09:21:09.209Z,3.40
2023-04-26T09:23:59.112Z,2.80
2023-04-26T09:26:29.852Z,2.43
2023-04-26T09:29:15.108Z,2.60
2023-04-26T09:31:49.492Z,2.83
2023-04-26T09:34:20.674Z,2.50
2023-04-26T09:36:56.533Z,2.67
2023-04-26T09:39:35.386Z,2.60
2023-04-26T09:42:08.255Z,2.50
2023-04-26T09:44:39.158Z,2.37
2023-04-26T09:47:11.918Z,2.67
2023-04-26T09:49:50.199Z,2.60
2023-04-26T09:52:20.800Z,2.47
2023-04-26T09:54:52.333Z,2.67
2023-04-26T09:57:23.813Z,2.80
2023-04-26T09:59:56.054Z,2.65
2023-04-26T10:02:29.335Z,2.57
2023-04-26T10:05:01.677Z,2.90
2023-04-26T10:07:32.786Z,2.40
2023-04-26T10:10:04.195Z,2.80
2023-04-26T10:12:35.997Z,2.20
2023-04-26T10:15:10.985Z,2.77
2023-04-26T10:17:41.692Z,2.50
2023-04-26T10:20:13.992Z,2.85
2023-04-26T10:22:50.459Z,2.70
2023-04-26T10:25:34.916Z,2.57
2023-04-26T10:28:05.454Z,2.73
2023-04-26T10:30:56.674Z,2.50
2023-04-26T10:33:27.600Z,2.33
2023-04-26T10:36:10.193Z,2.30
2023-04-26T10:38:42.813Z,2.30
2023-04-26T10:41:33.956Z,2.30
2023-04-26T10:44:39.156Z,2.30
2023-04-26T10:47:21.571Z,2.00
2023-04-26T10:49:51.863Z,2.47
2023-04-26T10:52:22.806Z,2.30
2023-04-26T10:54:55.253Z,2.20
2023-04-26T10:57:46.817Z,2.20
2023-04-26T11:03:03.083Z,2.50
2023-04-26T11:05:50.953Z,2.20
2023-04-26T11:08:25.565Z,2.30
2023-04-26T11:11:10.644Z,2.30
2023-04-26T11:13:42.457Z,2.30
2023-04-26T11:16:14.044Z,2.50
2023-04-26T11:18:46.301Z,2.07
2023-04-26T11:21:19.262Z,2.10
2023-04-26T11:23:56.107Z,2.10
2023-04-26T11:26:34.083Z,1.93
2023-04-26T11:29:08.100Z,2.00
2023-04-26T11:31:37.972Z,2.00
2023-04-26T11:34:08.532Z,2.00
2023-04-26T11:36:39.471Z,2.07
2023-04-26T11:39:11.582Z,1.80
2023-04-26T11:41:44.015Z,2.00
2023-04-26T11:44:18.012Z,1.80
2023-04-26T11:46:49.655Z,1.80
2023-04-26T11:49:20.515Z,1.63
2023-04-26T11:51:51.448Z,1.82
2023-04-26T11:54:32.625Z,1.62
2023-04-26T11:57:15.401Z,1.67
2023-04-26T11:59:47.007Z,1.77
2023-04-26T12:02:18.593Z,1.63
2023-04-26T12:04:59.220Z,1.60
2023-04-26T12:07:35.576Z,1.60
2023-04-26T12:10:21.865Z,1.63
2023-04-26T12:12:54.050Z,1.73
2023-04-26T12:15:32.135Z,1.80
2023-04-26T12:18:08.414Z,1.97
2023-04-26T12:20:40.399Z,1.70
2023-04-26T12:23:13.974Z,1.60
2023-04-26T12:25:55.353Z,1.90
2023-04-26T12:28:25.678Z,1.50
2023-04-26T12:30:56.418Z,1.00
2023-04-26T12:33:26.953Z,1.30
2023-04-26T12:35:59.861Z,1.10
2023-04-26T12:38:31.884Z,1.47
2023-04-26T12:41:03.434Z,1.63
2023-04-26T12:43:35.193Z,1.60
2023-04-26T12:48:36.448Z,4.90
2023-04-26T12:51:09.027Z,4.40
2023-04-26T12:53:39.549Z,12.77
2023-04-26T12:56:10.294Z,5.00
2023-04-26T12:58:41.021Z,4.75
2023-04-26T13:01:13.611Z,2.23
2023-04-26T13:03:45.074Z,1.80
2023-04-26T13:06:18.546Z,1.70
2023-04-26T13:08:48.669Z,1.70
2023-04-26T13:11:18.785Z,1.57
2023-04-26T13:13:49.921Z,1.67
2023-04-26T13:16:20.300Z,1.60
2023-04-26T13:18:50.970Z,1.73
2023-04-26T13:21:21.499Z,1.50
2023-04-26T13:23:51.410Z,1.50
2023-04-26T13:26:21.513Z,1.60
2023-04-26T13:28:52.057Z,1.40
2023-04-26T13:31:22.022Z,1.40
2023-04-26T13:33:52.707Z,1.50
2023-04-26T13:36:22.820Z,1.63
2023-04-26T13:38:53.554Z,1.50
2023-04-26T13:41:25.104Z,1.67
2023-04-26T13:43:55.650Z,1.67
2023-04-26T13:46:26.400Z,1.37
2023-04-26T13:48:57.305Z,1.67
2023-04-26T13:51:30.222Z,1.70
2023-04-26T13:54:00.195Z,1.67
2023-04-26T13:56:30.324Z,1.20
2023-04-26T13:59:03.025Z,1.47
2023-04-26T14:01:35.752Z,1.50
2023-04-26T14:04:10.023Z,1.87
2023-04-26T14:06:40.415Z,1.33
2023-04-26T14:09:11.660Z,1.40
2023-04-26T14:11:41.877Z,1.60
2023-04-26T14:14:12.610Z,1.67
2023-04-26T14:16:42.640Z,1.70
2023-04-26T14:19:15.061Z,1.40
2023-04-26T14:21:45.834Z,1.80
2023-04-26T14:24:16.562Z,1.70
2023-04-26T14:26:47.512Z,1.87
2023-04-26T14:29:17.824Z,1.47
2023-04-26T14:31:47.471Z,1.80
2023-04-26T14:34:18.065Z,1.60
2023-04-26T14:36:48.588Z,1.37
2023-04-26T14:39:19.320Z,1.73
2023-04-26T14:41:50.261Z,1.40
2023-04-26T14:44:22.812Z,1.97
2023-04-26T14:46:52.570Z,1.67
2023-04-26T14:49:23.073Z,1.50
2023-04-26T14:51:53.848Z,1.60
2023-04-26T14:54:24.745Z,2.07
2023-04-26T14:56:54.865Z,1.60
2023-04-26T14:59:25.391Z,1.80
2023-04-26T15:01:56.272Z,1.83
2023-04-26T15:04:27.217Z,1.90
2023-04-26T15:06:58.406Z,1.92
2023-04-26T15:09:30.817Z,1.70
2023-04-26T15:12:02.132Z,1.97
2023-04-26T15:14:32.447Z,2.00
2023-04-26T15:17:02.850Z,2.60
2023-04-26T15:19:34.117Z,2.50
2023-04-26T15:22:05.463Z,2.63
2023-04-26T15:24:38.239Z,3.33
2023-04-26T15:27:08.569Z,3.20
2023-04-26T15:29:39.098Z,3.23
2023-04-26T15:32:09.420Z,3.70
2023-04-26T15:34:43.256Z,3.70
2023-04-26T15:37:15.389Z,3.20
2023-04-26T15:39:47.349Z,2.67
2023-04-26T15:42:17.872Z,2.00
2023-04-26T15:44:48.607Z,1.90
2023-04-26T15:47:18.914Z,2.10
2023-04-26T15:49:50.909Z,2.30
2023-04-26T15:52:21.622Z,2.30
2023-04-26T15:54:52.158Z,2.67
2023-04-26T15:57:23.087Z,3.30
2023-04-26T15:59:53.625Z,3.90
2023-04-26T16:02:23.386Z,3.97
2023-04-26T16:04:54.736Z,3.30
2023-04-26T16:07:25.201Z,3.63
2023-04-26T16:09:56.144Z,2.93
2023-04-26T16:12:27.086Z,2.90
2023-04-26T16:14:57.811Z,3.27
2023-04-26T16:17:27.948Z,3.50
2023-04-26T16:19:58.045Z,3.47
2023-04-26T16:22:29.601Z,3.00
2023-04-26T16:25:01.572Z,2.60
2023-04-26T16:27:31.882Z,2.80
2023-04-26T16:30:03.434Z,2.17
2023-04-26T16:32:33.799Z,1.87
2023-04-26T16:35:04.695Z,2.30
2023-04-26T16:37:35.425Z,2.10
2023-04-26T16:40:10.734Z,2.40
2023-04-26T16:42:42.826Z,2.43
2023-04-26T16:47:47.180Z,2.00
2023-04-26T16:50:18.102Z,2.10
2023-04-26T16:52:48.093Z,2.70
2023-04-26T16:55:19.116Z,2.07
2023-04-26T16:57:49.058Z,2.97
2023-04-26T17:00:21.013Z,2.70
2023-04-26T17:02:51.275Z,2.60
2023-04-26T17:05:22.454Z,2.30
2023-04-26T17:07:52.825Z,2.13
2023-04-26T17:10:25.973Z,2.70
2023-04-26T17:12:55.633Z,2.47
2023-04-26T17:15:26.858Z,2.33
2023-04-26T17:17:57.626Z,2.40
2023-04-26T17:20:28.540Z,2.50
2023-04-26T17:22:59.670Z,3.03
2023-04-26T17:25:31.039Z,2.53
2023-04-26T17:28:01.338Z,2.87
2023-04-26T17:30:32.281Z,2.40
2023-04-26T17:33:02.910Z,2.40
2023-04-26T17:35:33.737Z,2.57
2023-04-26T17:38:04.507Z,2.30
2023-04-26T17:40:34.791Z,3.60
2023-04-26T17:43:04.708Z,3.10
2023-04-26T17:45:34.632Z,3.20
2023-04-26T17:48:10.555Z,3.50
2023-04-26T17:50:41.208Z,3.20
2023-04-26T17:53:12.561Z,3.87
2023-04-26T17:55:43.489Z,4.20
2023-04-26T17:58:14.019Z,3.87
2023-04-26T18:00:44.953Z,4.10
2023-04-26T18:03:15.664Z,3.77
2023-04-26T18:05:46.252Z,3.83
2023-04-26T18:08:17.152Z,3.73
2023-04-26T18:10:50.134Z,3.27
2023-04-26T18:13:21.124Z,3.70
2023-04-26T18:15:55.322Z,3.67
2023-04-26T18:18:27.801Z,3.53
2023-04-26T18:20:58.186Z,2.83
2023-04-26T18:23:28.920Z,2.90
2023-04-26T18:25:59.648Z,3.00
2023-04-26T18:28:30.801Z,2.30
2023-04-26T18:31:03.021Z,2.43
2023-04-26T18:33:33.698Z,2.60
2023-04-26T18:36:05.246Z,2.53
2023-04-26T18:38:35.978Z,2.40
2023-04-26T18:41:06.502Z,2.80
2023-04-26T18:43:36.623Z,2.43
2023-04-26T18:46:08.463Z,2.30
2023-04-26T18:48:41.159Z,2.93
2023-04-26T18:51:11.277Z,2.30
2023-04-26T18:53:42.006Z,2.20
2023-04-26T18:56:12.735Z,2.20
2023-04-26T18:58:43.305Z,2.07
2023-04-26T19:01:20.401Z,1.73
2023-04-26T19:03:51.837Z,1.77
2023-04-26T19:06:22.252Z,1.70
2023-04-26T19:08:53.376Z,1.80
2023-04-26T19:11:26.975Z,1.53
2023-04-26T19:13:57.086Z,1.83
2023-04-26T19:16:28.567Z,1.97
2023-04-26T19:19:02.676Z,1.80
2023-04-26T19:21:33.583Z,1.90
2023-04-26T19:24:04.934Z,1.93
2023-04-26T19:26:36.711Z,1.70
2023-04-26T19:29:07.258Z,2.20
2023-04-26T19:31:37.365Z,1.80
2023-04-26T19:34:08.063Z,1.90
2023-04-26T19:36:42.085Z,1.83
2023-04-26T19:39:13.218Z,1.67
2023-04-26T19:41:43.931Z,1.60
2023-04-26T19:44:14.077Z,1.97
2023-04-26T19:46:46.272Z,2.50
2023-04-26T19:49:16.355Z,2.20
2023-04-26T19:51:46.491Z,2.13
2023-04-26T19:54:18.234Z,2.30
2023-04-26T19:56:48.553Z,2.35
2023-04-26T19:59:19.289Z,2.30
2023-04-26T20:01:52.282Z,2.23
2023-04-26T20:04:24.207Z,2.50
2023-04-26T20:06:54.966Z,2.50
2023-04-26T20:09:25.492Z,2.20
2023-04-26T20:11:56.233Z,2.30
2023-04-26T20:14:29.651Z,2.20
2023-04-26T20:17:01.665Z,2.10
2023-04-26T20:22:00.994Z,2.60
2023-04-26T20:24:32.757Z,2.50
2023-04-26T20:27:03.077Z,2.10
2023-04-26T20:29:34.011Z,2.27
2023-04-26T20:32:05.438Z,2.10
2023-04-26T20:34:36.086Z,2.63
2023-04-26T20:37:07.233Z,2.80
2023-04-26T20:39:37.757Z,2.77
2023-04-26T20:42:09.308Z,2.57
2023-04-26T20:44:39.849Z,2.45
2023-04-26T20:47:09.912Z,2.27
2023-04-26T20:49:40.691Z,2.30
2023-04-26T20:52:12.447Z,2.17
2023-04-26T20:54:43.752Z,2.22
2023-04-26T20:57:14.529Z,2.10
2023-04-26T20:59:45.877Z,2.47
2023-04-26T21:02:16.148Z,2.20
2023-04-26T21:04:47.134Z,2.40
2023-04-26T21:07:17.457Z,2.03
2023-04-26T21:09:48.803Z,2.40
2023-04-26T21:12:18.727Z,2.10
2023-04-26T21:14:49.859Z,2.30
2023-04-26T21:17:19.734Z,2.10
2023-04-26T21:19:50.505Z,2.30
2023-04-26T21:22:21.041Z,2.00
2023-04-26T21:24:52.990Z,2.23
2023-04-26T21:27:23.320Z,2.20
2023-04-26T21:29:53.841Z,2.20
2023-04-26T21:32:23.640Z,2.17
2023-04-26T21:34:53.677Z,2.30
2023-04-26T21:37:24.001Z,2.77
2023-04-26T21:39:54.520Z,2.07
2023-04-26T21:42:25.252Z,2.40
2023-04-26T21:44:55.786Z,2.70
2023-04-26T21:47:25.948Z,2.60
2023-04-26T21:49:56.634Z,2.20
2023-04-26T21:52:27.159Z,3.50
2023-04-26T21:54:58.093Z,2.70
2023-04-26T21:57:28.838Z,2.43
2023-04-26T21:59:59.558Z,2.40
2023-04-26T22:02:29.583Z,2.53
2023-04-26T22:05:00.209Z,2.43
2023-04-26T22:07:30.958Z,2.60
2023-04-26T22:10:03.105Z,2.43
2023-04-26T22:12:33.840Z,2.72
2023-04-26T22:15:06.422Z,2.63
2023-04-26T22:20:08.042Z,2.63
2023-04-26T22:22:38.400Z,2.73
2023-04-26T22:25:11.114Z,3.03
2023-04-26T22:27:41.924Z,2.47
2023-04-26T22:30:24.750Z,2.87
2023-04-26T22:32:58.887Z,3.17
2023-04-26T22:35:29.680Z,2.63
2023-04-26T22:38:00.222Z,2.80
2023-04-26T22:40:31.756Z,2.77
2023-04-26T22:43:02.292Z,2.70
2023-04-26T22:45:33.197Z,2.90
2023-04-26T22:48:03.386Z,2.83
2023-04-26T22:50:34.734Z,3.07
2023-04-26T22:53:05.648Z,2.80
2023-04-26T22:55:35.949Z,3.10
2023-04-26T22:58:06.069Z,3.50
2023-04-26T23:00:36.591Z,3.90
2023-04-26T23:03:06.470Z,3.87
2023-04-26T23:05:38.056Z,3.33
2023-04-26T23:08:08.995Z,3.20
2023-04-26T23:10:40.728Z,3.50
2023-04-26T23:13:11.279Z,3.08
2023-04-26T23:15:42.218Z,3.40
2023-04-26T23:18:13.364Z,3.10
2023-04-26T23:20:43.268Z,3.53
2023-04-26T23:23:14.216Z,4.17
2023-04-26T23:25:44.736Z,3.93
2023-04-26T23:28:14.654Z,3.70
2023-04-26T23:30:44.559Z,4.20
2023-04-26T23:33:14.492Z,3.37
2023-04-26T23:35:44.594Z,3.73
2023-04-26T23:38:15.947Z,4.03
2023-04-26T23:40:46.687Z,3.87
2023-04-26T23:43:17.405Z,3.73
2023-04-26T23:45:48.089Z,3.93
2023-04-26T23:48:19.282Z,3.67
2023-04-26T23:50:49.805Z,3.63
2023-04-26T23:53:20.545Z,3.80
2023-04-26T23:55:51.067Z,4.13
2023-04-26T23:58:21.594Z,3.60
